sensor_id;sensor_type;location;lat;lon;timestamp;P1;durP1;ratioP1;P2;durP2;ratioP2
7707;SDS011;3896;48.758;8.888;2023-05-07T00:00:17;2.50;;;2.30;;
7707;SDS011;3896;48.758;8.888;2023-05-07T00:02:44;2.77;;;2.57;;
7707;SDS011;3896;48.758;8.888;2023-05-07T00:05:10;2.60;;;2.40;;
7707;SDS011;3896;48.758;8.888;2023-05-07T00:07:35;3.00;;;2.30;;
7707;SDS011;3896;48.758;8.888;2023-05-07T00:10:01;2.13;;;2.00;;
7707;SDS011;3896;48.758;8.888;2023-05-07T00:12:27;6.77;;;2.80;;
7707;SDS011;3896;48.758;8.888;2023-05-07T00:14:56;2.47;;;2.10;;
7707;SDS011;3896;48.758;8.888;2023-05-07T00:17:22;3.57;;;2.23;;
7707;SDS011;3896;48.758;8.888;2023-05-07T00:19:47;2.97;;;2.77;;
7707;SDS011;3896;48.758;8.888;2023-05-07T00:22:13;2.50;;;2.30;;
7707;SDS011;3896;48.758;8.888;2023-05-07T00:24:39;2.43;;;2.10;;
7707;SDS011;3896;48.758;8.888;2023-05-07T00:27:04;1.80;;;1.70;;
7707;SDS011;3896;48.758;8.888;2023-05-07T00:29:30;2.53;;;2.33;;
7707;SDS011;3896;48.758;8.888;2023-05-07T00:31:55;5.80;;;2.33;;
7707;SDS011;3896;48.758;8.888;2023-05-07T00:34:21;2.20;;;2.10;;
7707;SDS011;3896;48.758;8.888;2023-05-07T00:36:47;2.20;;;2.10;;
7707;SDS011;3896;48.758;8.888;2023-05-07T00:39:13;4.20;;;2.53;;
7707;SDS011;3896;48.758;8.888;2023-05-07T00:41:38;2.20;;;2.10;;
7707;SDS011;3896;48.758;8.888;2023-05-07T00:44:04;3.30;;;2.33;;
7707;SDS011;3896;48.758;8.888;2023-05-07T00:46:30;2.50;;;2.30;;
7707;SDS011;3896;48.758;8.888;2023-05-07T00:48:57;2.27;;;2.00;;
7707;SDS011;3896;48.758;8.888;2023-05-07T00:51:24;2.27;;;1.87;;
7707;SDS011;3896;48.758;8.888;2023-05-07T00:53:51;2.57;;;2.10;;
7707;SDS011;3896;48.758;8.888;2023-05-07T00:56:17;3.30;;;2.00;;
7707;SDS011;3896;48.758;8.888;2023-05-07T00:58:43;2.23;;;2.00;;
7707;SDS011;3896;48.758;8.888;2023-05-07T01:01:09;2.57;;;2.30;;
7707;SDS011;3896;48.758;8.888;2023-05-07T01:03:35;2.40;;;2.30;;
7707;SDS011;3896;48.758;8.888;2023-05-07T01:06:00;4.47;;;2.10;;
7707;SDS011;3896;48.758;8.888;2023-05-07T01:08:27;2.30;;;2.10;;
7707;SDS011;3896;48.758;8.888;2023-05-07T01:10:55;2.60;;;2.40;;
7707;SDS011;3896;48.758;8.888;2023-05-07T01:13:22;2.80;;;2.60;;
7707;SDS011;3896;48.758;8.888;2023-05-07T01:15:48;3.57;;;2.57;;
7707;SDS011;3896;48.758;8.888;2023-05-07T01:18:14;2.80;;;2.53;;
7707;SDS011;3896;48.758;8.888;2023-05-07T01:20:40;3.97;;;2.43;;
7707;SDS011;3896;48.758;8.888;2023-05-07T01:23:06;4.77;;;2.27;;
7707;SDS011;3896;48.758;8.888;2023-05-07T01:25:32;2.53;;;2.33;;
7707;SDS011;3896;48.758;8.888;2023-05-07T01:27:58;2.90;;;2.70;;
7707;SDS011;3896;48.758;8.888;2023-05-07T01:30:27;2.70;;;2.50;;
7707;SDS011;3896;48.758;8.888;2023-05-07T01:32:56;4.87;;;2.40;;
7707;SDS011;3896;48.758;8.888;2023-05-07T01:35:35;2.77;;;2.50;;
7707;SDS011;3896;48.758;8.888;2023-05-07T01:38:05;6.23;;;2.93;;
7707;SDS011;3896;48.758;8.888;2023-05-07T01:40:33;2.63;;;2.43;;
7707;SDS011;3896;48.758;8.888;2023-05-07T01:42:59;3.93;;;2.60;;
7707;SDS011;3896;48.758;8.888;2023-05-07T01:45:28;4.63;;;2.50;;
7707;SDS011;3896;48.758;8.888;2023-05-07T01:47:56;5.63;;;2.50;;
7707;SDS011;3896;48.758;8.888;2023-05-07T01:50:23;3.50;;;2.90;;
7707;SDS011;3896;48.758;8.888;2023-05-07T01:52:50;3.53;;;2.97;;
7707;SDS011;3896;48.758;8.888;2023-05-07T01:55:16;3.47;;;2.60;;
7707;SDS011;3896;48.758;8.888;2023-05-07T01:57:42;3.47;;;3.03;;
7707;SDS011;3896;48.758;8.888;2023-05-07T02:00:07;3.93;;;2.90;;
7707;SDS011;3896;48.758;8.888;2023-05-07T02:02:34;2.70;;;2.50;;
7707;SDS011;3896;48.758;8.888;2023-05-07T02:04:59;2.83;;;2.57;;
7707;SDS011;3896;48.758;8.888;2023-05-07T02:07:26;3.27;;;2.97;;
7707;SDS011;3896;48.758;8.888;2023-05-07T02:09:52;3.13;;;2.67;;
7707;SDS011;3896;48.758;8.888;2023-05-07T02:12:18;5.47;;;2.73;;
7707;SDS011;3896;48.758;8.888;2023-05-07T02:14:44;3.20;;;2.50;;
7707;SDS011;3896;48.758;8.888;2023-05-07T02:17:09;4.17;;;2.83;;
7707;SDS011;3896;48.758;8.888;2023-05-07T02:19:35;3.17;;;2.87;;
7707;SDS011;3896;48.758;8.888;2023-05-07T02:22:00;2.67;;;2.47;;
7707;SDS011;3896;48.758;8.888;2023-05-07T02:24:26;3.47;;;3.17;;
7707;SDS011;3896;48.758;8.888;2023-05-07T02:26:51;3.03;;;2.50;;
7707;SDS011;3896;48.758;8.888;2023-05-07T02:29:17;3.30;;;2.50;;
7707;SDS011;3896;48.758;8.888;2023-05-07T02:31:42;2.83;;;2.60;;
7707;SDS011;3896;48.758;8.888;2023-05-07T02:34:08;4.93;;;2.80;;
7707;SDS011;3896;48.758;8.888;2023-05-07T02:36:34;2.70;;;2.50;;
7707;SDS011;3896;48.758;8.888;2023-05-07T02:38:59;3.00;;;2.53;;
7707;SDS011;3896;48.758;8.888;2023-05-07T02:41:25;3.10;;;2.63;;
7707;SDS011;3896;48.758;8.888;2023-05-07T02:43:51;2.73;;;2.53;;
7707;SDS011;3896;48.758;8.888;2023-05-07T02:46:16;3.30;;;2.43;;
7707;SDS011;3896;48.758;8.888;2023-05-07T02:48:42;2.37;;;2.17;;
7707;SDS011;3896;48.758;8.888;2023-05-07T02:51:07;2.80;;;2.20;;
7707;SDS011;3896;48.758;8.888;2023-05-07T02:53:33;6.00;;;2.60;;
7707;SDS011;3896;48.758;8.888;2023-05-07T02:55:59;3.83;;;2.67;;
7707;SDS011;3896;48.758;8.888;2023-05-07T02:58:26;3.40;;;2.90;;
7707;SDS011;3896;48.758;8.888;2023-05-07T03:00:51;4.97;;;3.03;;
7707;SDS011;3896;48.758;8.888;2023-05-07T03:03:17;2.93;;;2.73;;
7707;SDS011;3896;48.758;8.888;2023-05-07T03:05:43;4.87;;;2.80;;
7707;SDS011;3896;48.758;8.888;2023-05-07T03:08:09;3.93;;;2.87;;
7707;SDS011;3896;48.758;8.888;2023-05-07T03:10:35;2.83;;;2.63;;
7707;SDS011;3896;48.758;8.888;2023-05-07T03:13:01;3.77;;;3.30;;
7707;SDS011;3896;48.758;8.888;2023-05-07T03:15:27;2.80;;;2.60;;
7707;SDS011;3896;48.758;8.888;2023-05-07T03:17:52;3.00;;;2.80;;
7707;SDS011;3896;48.758;8.888;2023-05-07T03:20:18;4.60;;;2.90;;
7707;SDS011;3896;48.758;8.888;2023-05-07T03:22:43;5.03;;;2.90;;
7707;SDS011;3896;48.758;8.888;2023-05-07T03:25:09;3.20;;;3.00;;
7707;SDS011;3896;48.758;8.888;2023-05-07T03:27:35;3.57;;;2.90;;
7707;SDS011;3896;48.758;8.888;2023-05-07T03:30:01;2.97;;;2.40;;
7707;SDS011;3896;48.758;8.888;2023-05-07T03:32:26;3.00;;;2.70;;
7707;SDS011;3896;48.758;8.888;2023-05-07T03:34:52;3.43;;;2.63;;
7707;SDS011;3896;48.758;8.888;2023-05-07T03:37:18;2.73;;;2.53;;
7707;SDS011;3896;48.758;8.888;2023-05-07T03:39:43;3.57;;;2.70;;
7707;SDS011;3896;48.758;8.888;2023-05-07T03:42:09;4.33;;;2.90;;
7707;SDS011;3896;48.758;8.888;2023-05-07T03:44:35;3.33;;;2.90;;
7707;SDS011;3896;48.758;8.888;2023-05-07T03:47:01;3.40;;;2.60;;
7707;SDS011;3896;48.758;8.888;2023-05-07T03:49:27;4.27;;;3.50;;
7707;SDS011;3896;48.758;8.888;2023-05-07T03:51:52;4.20;;;2.60;;
7707;SDS011;3896;48.758;8.888;2023-05-07T03:54:18;8.53;;;2.90;;
7707;SDS011;3896;48.758;8.888;2023-05-07T03:56:44;2.90;;;2.70;;
7707;SDS011;3896;48.758;8.888;2023-05-07T03:59:09;2.90;;;2.60;;
7707;SDS011;3896;48.758;8.888;2023-05-07T04:01:35;2.60;;;2.40;;
7707;SDS011;3896;48.758;8.888;2023-05-07T04:04:00;4.53;;;3.07;;
7707;SDS011;3896;48.758;8.888;2023-05-07T04:06:26;3.90;;;2.87;;
7707;SDS011;3896;48.758;8.888;2023-05-07T04:08:52;2.70;;;2.50;;
7707;SDS011;3896;48.758;8.888;2023-05-07T04:11:18;2.83;;;2.63;;
7707;SDS011;3896;48.758;8.888;2023-05-07T04:13:43;3.20;;;2.87;;
7707;SDS011;3896;48.758;8.888;2023-05-07T04:16:09;3.00;;;2.80;;
7707;SDS011;3896;48.758;8.888;2023-05-07T04:18:34;3.77;;;2.70;;
7707;SDS011;3896;48.758;8.888;2023-05-07T04:21:00;5.17;;;2.40;;
7707;SDS011;3896;48.758;8.888;2023-05-07T04:23:26;3.30;;;3.00;;
7707;SDS011;3896;48.758;8.888;2023-05-07T04:25:51;4.67;;;2.90;;
7707;SDS011;3896;48.758;8.888;2023-05-07T04:28:17;3.43;;;2.53;;
7707;SDS011;3896;48.758;8.888;2023-05-07T04:30:43;3.03;;;2.80;;
7707;SDS011;3896;48.758;8.888;2023-05-07T04:33:08;3.57;;;2.50;;
7707;SDS011;3896;48.758;8.888;2023-05-07T04:35:34;3.30;;;2.93;;
7707;SDS011;3896;48.758;8.888;2023-05-07T04:38:00;3.20;;;2.50;;
7707;SDS011;3896;48.758;8.888;2023-05-07T04:40:26;2.60;;;2.33;;
7707;SDS011;3896;48.758;8.888;2023-05-07T04:42:52;2.60;;;2.40;;
7707;SDS011;3896;48.758;8.888;2023-05-07T04:45:18;3.13;;;2.87;;
7707;SDS011;3896;48.758;8.888;2023-05-07T04:47:43;3.80;;;2.50;;
7707;SDS011;3896;48.758;8.888;2023-05-07T04:50:09;3.17;;;2.90;;
7707;SDS011;3896;48.758;8.888;2023-05-07T04:52:35;3.47;;;2.70;;
7707;SDS011;3896;48.758;8.888;2023-05-07T04:55:01;5.40;;;2.63;;
7707;SDS011;3896;48.758;8.888;2023-05-07T04:57:27;3.53;;;3.10;;
7707;SDS011;3896;48.758;8.888;2023-05-07T04:59:53;3.77;;;3.13;;
7707;SDS011;3896;48.758;8.888;2023-05-07T05:02:19;3.80;;;2.93;;
7707;SDS011;3896;48.758;8.888;2023-05-07T05:04:45;4.30;;;3.43;;
7707;SDS011;3896;48.758;8.888;2023-05-07T05:07:10;3.10;;;2.80;;
7707;SDS011;3896;48.758;8.888;2023-05-07T05:09:36;6.53;;;3.00;;
7707;SDS011;3896;48.758;8.888;2023-05-07T05:12:01;3.13;;;2.83;;
7707;SDS011;3896;48.758;8.888;2023-05-07T05:14:27;3.37;;;2.90;;
7707;SDS011;3896;48.758;8.888;2023-05-07T05:16:54;4.80;;;3.20;;
7707;SDS011;3896;48.758;8.888;2023-05-07T05:19:20;3.93;;;3.27;;
7707;SDS011;3896;48.758;8.888;2023-05-07T05:21:45;4.03;;;2.93;;
7707;SDS011;3896;48.758;8.888;2023-05-07T05:24:11;4.17;;;3.73;;
7707;SDS011;3896;48.758;8.888;2023-05-07T05:26:36;4.43;;;3.53;;
7707;SDS011;3896;48.758;8.888;2023-05-07T05:29:02;5.23;;;3.47;;
7707;SDS011;3896;48.758;8.888;2023-05-07T05:31:27;4.13;;;3.73;;
7707;SDS011;3896;48.758;8.888;2023-05-07T05:33:53;3.70;;;3.40;;
7707;SDS011;3896;48.758;8.888;2023-05-07T05:36:18;5.20;;;3.20;;
7707;SDS011;3896;48.758;8.888;2023-05-07T05:38:44;3.80;;;3.50;;
7707;SDS011;3896;48.758;8.888;2023-05-07T05:41:09;7.43;;;3.93;;
7707;SDS011;3896;48.758;8.888;2023-05-07T05:43:35;4.47;;;3.60;;
7707;SDS011;3896;48.758;8.888;2023-05-07T05:46:01;3.97;;;3.63;;
7707;SDS011;3896;48.758;8.888;2023-05-07T05:48:26;4.67;;;3.33;;
7707;SDS011;3896;48.758;8.888;2023-05-07T05:50:53;3.77;;;3.47;;
7707;SDS011;3896;48.758;8.888;2023-05-07T05:53:19;3.63;;;2.83;;
7707;SDS011;3896;48.758;8.888;2023-05-07T05:55:44;8.70;;;3.70;;
7707;SDS011;3896;48.758;8.888;2023-05-07T05:58:10;3.70;;;3.40;;
7707;SDS011;3896;48.758;8.888;2023-05-07T06:00:35;5.17;;;3.30;;
7707;SDS011;3896;48.758;8.888;2023-05-07T06:03:01;4.00;;;3.50;;
7707;SDS011;3896;48.758;8.888;2023-05-07T06:05:27;3.83;;;3.37;;
7707;SDS011;3896;48.758;8.888;2023-05-07T06:07:52;3.57;;;3.23;;
7707;SDS011;3896;48.758;8.888;2023-05-07T06:10:18;3.90;;;3.20;;
7707;SDS011;3896;48.758;8.888;2023-05-07T06:12:43;4.07;;;3.67;;
7707;SDS011;3896;48.758;8.888;2023-05-07T06:15:09;3.57;;;3.27;;
7707;SDS011;3896;48.758;8.888;2023-05-07T06:17:35;3.83;;;3.00;;
7707;SDS011;3896;48.758;8.888;2023-05-07T06:20:00;6.80;;;3.23;;
7707;SDS011;3896;48.758;8.888;2023-05-07T06:22:26;4.13;;;3.03;;
7707;SDS011;3896;48.758;8.888;2023-05-07T06:24:52;3.83;;;2.70;;
7707;SDS011;3896;48.758;8.888;2023-05-07T06:27:17;2.97;;;2.73;;
7707;SDS011;3896;48.758;8.888;2023-05-07T06:29:43;6.70;;;3.13;;
7707;SDS011;3896;48.758;8.888;2023-05-07T06:32:09;2.83;;;2.63;;
7707;SDS011;3896;48.758;8.888;2023-05-07T06:34:35;3.50;;;3.20;;
7707;SDS011;3896;48.758;8.888;2023-05-07T06:37:01;3.70;;;3.30;;
7707;SDS011;3896;48.758;8.888;2023-05-07T06:39:27;3.80;;;3.50;;
7707;SDS011;3896;48.758;8.888;2023-05-07T06:41:53;3.70;;;3.30;;
7707;SDS011;3896;48.758;8.888;2023-05-07T06:44:18;4.67;;;3.60;;
7707;SDS011;3896;48.758;8.888;2023-05-07T06:46:44;3.90;;;3.60;;
7707;SDS011;3896;48.758;8.888;2023-05-07T06:49:10;4.67;;;3.90;;
7707;SDS011;3896;48.758;8.888;2023-05-07T06:51:35;4.60;;;3.50;;
7707;SDS011;3896;48.758;8.888;2023-05-07T06:54:01;3.50;;;3.20;;
7707;SDS011;3896;48.758;8.888;2023-05-07T06:56:27;3.57;;;3.03;;
7707;SDS011;3896;48.758;8.888;2023-05-07T06:58:52;5.23;;;3.97;;
7707;SDS011;3896;48.758;8.888;2023-05-07T07:01:18;4.07;;;3.67;;
7707;SDS011;3896;48.758;8.888;2023-05-07T07:03:43;4.17;;;3.77;;
7707;SDS011;3896;48.758;8.888;2023-05-07T07:06:09;4.90;;;4.40;;
7707;SDS011;3896;48.758;8.888;2023-05-07T07:08:34;6.53;;;4.03;;
7707;SDS011;3896;48.758;8.888;2023-05-07T07:11:00;4.47;;;4.07;;
7707;SDS011;3896;48.758;8.888;2023-05-07T07:13:25;6.47;;;4.97;;
7707;SDS011;3896;48.758;8.888;2023-05-07T07:15:51;5.47;;;4.93;;
7707;SDS011;3896;48.758;8.888;2023-05-07T07:18:18;5.10;;;4.43;;
7707;SDS011;3896;48.758;8.888;2023-05-07T07:20:43;10.63;;;4.87;;
7707;SDS011;3896;48.758;8.888;2023-05-07T07:23:09;7.80;;;4.73;;
7707;SDS011;3896;48.758;8.888;2023-05-07T07:25:35;4.93;;;4.43;;
7707;SDS011;3896;48.758;8.888;2023-05-07T07:28:00;5.13;;;4.63;;
7707;SDS011;3896;48.758;8.888;2023-05-07T07:30:26;4.30;;;3.90;;
7707;SDS011;3896;48.758;8.888;2023-05-07T07:32:51;4.87;;;4.37;;
7707;SDS011;3896;48.758;8.888;2023-05-07T07:35:17;4.80;;;3.80;;
7707;SDS011;3896;48.758;8.888;2023-05-07T07:37:43;5.10;;;4.60;;
7707;SDS011;3896;48.758;8.888;2023-05-07T07:40:09;6.27;;;4.13;;
7707;SDS011;3896;48.758;8.888;2023-05-07T07:42:35;3.73;;;3.43;;
7707;SDS011;3896;48.758;8.888;2023-05-07T07:45:00;4.40;;;4.00;;
7707;SDS011;3896;48.758;8.888;2023-05-07T07:47:26;4.17;;;3.63;;
7707;SDS011;3896;48.758;8.888;2023-05-07T07:49:51;4.03;;;3.37;;
7707;SDS011;3896;48.758;8.888;2023-05-07T07:52:17;4.83;;;3.40;;
7707;SDS011;3896;48.758;8.888;2023-05-07T07:54:44;6.23;;;3.27;;
7707;SDS011;3896;48.758;8.888;2023-05-07T07:57:09;4.20;;;3.10;;
7707;SDS011;3896;48.758;8.888;2023-05-07T07:59:35;4.30;;;3.30;;
7707;SDS011;3896;48.758;8.888;2023-05-07T08:02:00;3.87;;;3.20;;
7707;SDS011;3896;48.758;8.888;2023-05-07T08:04:26;5.80;;;3.23;;
7707;SDS011;3896;48.758;8.888;2023-05-07T08:06:51;3.63;;;3.33;;
7707;SDS011;3896;48.758;8.888;2023-05-07T08:09:19;3.27;;;2.97;;
7707;SDS011;3896;48.758;8.888;2023-05-07T08:11:44;3.80;;;3.00;;
7707;SDS011;3896;48.758;8.888;2023-05-07T08:14:10;3.17;;;2.87;;
7707;SDS011;3896;48.758;8.888;2023-05-07T08:16:36;3.77;;;3.13;;
7707;SDS011;3896;48.758;8.888;2023-05-07T08:19:02;3.57;;;3.07;;
7707;SDS011;3896;48.758;8.888;2023-05-07T08:21:28;3.60;;;3.30;;
7707;SDS011;3896;48.758;8.888;2023-05-07T08:23:53;3.20;;;3.00;;
7707;SDS011;3896;48.758;8.888;2023-05-07T08:26:19;4.43;;;3.00;;
7707;SDS011;3896;48.758;8.888;2023-05-07T08:28:45;3.27;;;2.73;;
7707;SDS011;3896;48.758;8.888;2023-05-07T08:31:11;2.87;;;2.67;;
7707;SDS011;3896;48.758;8.888;2023-05-07T08:33:39;2.50;;;2.30;;
7707;SDS011;3896;48.758;8.888;2023-05-07T08:36:05;3.50;;;2.50;;
7707;SDS011;3896;48.758;8.888;2023-05-07T08:38:30;3.20;;;2.90;;
7707;SDS011;3896;48.758;8.888;2023-05-07T08:40:56;3.10;;;2.27;;
7707;SDS011;3896;48.758;8.888;2023-05-07T08:43:22;2.40;;;2.20;;
7707;SDS011;3896;48.758;8.888;2023-05-07T08:45:51;2.47;;;2.27;;
7707;SDS011;3896;48.758;8.888;2023-05-07T08:48:20;2.83;;;2.17;;
7707;SDS011;3896;48.758;8.888;2023-05-07T08:50:50;3.90;;;2.33;;
7707;SDS011;3896;48.758;8.888;2023-05-07T08:53:16;2.87;;;2.53;;
7707;SDS011;3896;48.758;8.888;2023-05-07T08:55:42;4.83;;;2.63;;
7707;SDS011;3896;48.758;8.888;2023-05-07T08:58:08;2.60;;;2.40;;
7707;SDS011;3896;48.758;8.888;2023-05-07T09:00:33;3.67;;;2.30;;
7707;SDS011;3896;48.758;8.888;2023-05-07T09:03:01;3.20;;;2.50;;
7707;SDS011;3896;48.758;8.888;2023-05-07T09:05:26;2.00;;;1.90;;
7707;SDS011;3896;48.758;8.888;2023-05-07T09:07:52;2.27;;;2.13;;
7707;SDS011;3896;48.758;8.888;2023-05-07T09:10:18;2.20;;;1.70;;
7707;SDS011;3896;48.758;8.888;2023-05-07T09:12:43;2.43;;;2.20;;
7707;SDS011;3896;48.758;8.888;2023-05-07T09:15:12;3.53;;;2.00;;
7707;SDS011;3896;48.758;8.888;2023-05-07T09:17:38;2.30;;;2.10;;
7707;SDS011;3896;48.758;8.888;2023-05-07T09:20:08;2.50;;;2.30;;
7707;SDS011;3896;48.758;8.888;2023-05-07T09:22:35;5.03;;;2.50;;
7707;SDS011;3896;48.758;8.888;2023-05-07T09:25:07;3.10;;;2.60;;
7707;SDS011;3896;48.758;8.888;2023-05-07T09:27:34;2.70;;;2.23;;
7707;SDS011;3896;48.758;8.888;2023-05-07T09:30:02;2.30;;;2.13;;
7707;SDS011;3896;48.758;8.888;2023-05-07T09:32:29;2.23;;;1.97;;
7707;SDS011;3896;48.758;8.888;2023-05-07T09:34:56;3.43;;;2.43;;
7707;SDS011;3896;48.758;8.888;2023-05-07T09:37:21;2.17;;;1.80;;
7707;SDS011;3896;48.758;8.888;2023-05-07T09:39:48;2.10;;;1.93;;
7707;SDS011;3896;48.758;8.888;2023-05-07T09:42:14;2.33;;;2.23;;
7707;SDS011;3896;48.758;8.888;2023-05-07T09:44:40;2.10;;;1.90;;
7707;SDS011;3896;48.758;8.888;2023-05-07T09:47:07;2.60;;;2.00;;
7707;SDS011;3896;48.758;8.888;2023-05-07T09:49:37;2.40;;;1.77;;
7707;SDS011;3896;48.758;8.888;2023-05-07T09:52:05;4.00;;;1.50;;
7707;SDS011;3896;48.758;8.888;2023-05-07T09:54:33;2.23;;;1.83;;
7707;SDS011;3896;48.758;8.888;2023-05-07T09:57:02;4.20;;;2.23;;
7707;SDS011;3896;48.758;8.888;2023-05-07T09:59:29;2.10;;;1.80;;
7707;SDS011;3896;48.758;8.888;2023-05-07T10:01:57;3.73;;;2.33;;
7707;SDS011;3896;48.758;8.888;2023-05-07T10:04:27;3.50;;;1.90;;
7707;SDS011;3896;48.758;8.888;2023-05-07T10:06:53;2.60;;;1.90;;
7707;SDS011;3896;48.758;8.888;2023-05-07T10:09:20;3.60;;;2.10;;
7707;SDS011;3896;48.758;8.888;2023-05-07T10:11:46;2.57;;;2.17;;
7707;SDS011;3896;48.758;8.888;2023-05-07T10:14:14;1.67;;;1.50;;
7707;SDS011;3896;48.758;8.888;2023-05-07T10:16:40;2.33;;;2.10;;
7707;SDS011;3896;48.758;8.888;2023-05-07T10:19:07;3.23;;;2.73;;
7707;SDS011;3896;48.758;8.888;2023-05-07T10:21:37;5.03;;;2.30;;
7707;SDS011;3896;48.758;8.888;2023-05-07T10:24:05;2.33;;;1.57;;
7707;SDS011;3896;48.758;8.888;2023-05-07T10:26:38;4.23;;;2.00;;
7707;SDS011;3896;48.758;8.888;2023-05-07T10:29:53;1.70;;;1.60;;
7707;SDS011;3896;48.758;8.888;2023-05-07T10:34:38;2.57;;;1.90;;
7707;SDS011;3896;48.758;8.888;2023-05-07T10:37:08;1.90;;;1.70;;
7707;SDS011;3896;48.758;8.888;2023-05-07T10:39:34;3.17;;;1.83;;
7707;SDS011;3896;48.758;8.888;2023-05-07T10:42:10;2.43;;;1.80;;
7707;SDS011;3896;48.758;8.888;2023-05-07T10:44:36;2.33;;;2.10;;
7707;SDS011;3896;48.758;8.888;2023-05-07T10:47:06;1.93;;;1.77;;
7707;SDS011;3896;48.758;8.888;2023-05-07T10:49:34;4.30;;;1.77;;
7707;SDS011;3896;48.758;8.888;2023-05-07T10:52:19;2.07;;;1.50;;
7707;SDS011;3896;48.758;8.888;2023-05-07T10:54:48;2.70;;;1.60;;
7707;SDS011;3896;48.758;8.888;2023-05-07T10:57:39;2.27;;;1.90;;
7707;SDS011;3896;48.758;8.888;2023-05-07T11:00:47;3.93;;;1.80;;
7707;SDS011;3896;48.758;8.888;2023-05-07T11:05:26;1.90;;;1.80;;
7707;SDS011;3896;48.758;8.888;2023-05-07T11:07:55;2.47;;;1.90;;
7707;SDS011;3896;48.758;8.888;2023-05-07T11:10:22;4.33;;;1.90;;
7707;SDS011;3896;48.758;8.888;2023-05-07T11:12:49;1.87;;;1.67;;
7707;SDS011;3896;48.758;8.888;2023-05-07T11:15:33;4.53;;;2.00;;
7707;SDS011;3896;48.758;8.888;2023-05-07T11:18:00;2.13;;;2.00;;
7707;SDS011;3896;48.758;8.888;2023-05-07T11:26:09;3.63;;;2.63;;
7707;SDS011;3896;48.758;8.888;2023-05-07T11:28:37;3.60;;;2.80;;
7707;SDS011;3896;48.758;8.888;2023-05-07T11:31:08;3.90;;;2.33;;
7707;SDS011;3896;48.758;8.888;2023-05-07T11:33:34;3.60;;;2.30;;
7707;SDS011;3896;48.758;8.888;2023-05-07T11:36:04;2.20;;;2.10;;
7707;SDS011;3896;48.758;8.888;2023-05-07T11:38:30;3.03;;;2.77;;
7707;SDS011;3896;48.758;8.888;2023-05-07T11:40:59;2.30;;;2.10;;
7707;SDS011;3896;48.758;8.888;2023-05-07T11:43:26;2.43;;;2.23;;
7707;SDS011;3896;48.758;8.888;2023-05-07T11:45:52;3.20;;;2.30;;
7707;SDS011;3896;48.758;8.888;2023-05-07T11:48:20;2.70;;;2.50;;
7707;SDS011;3896;48.758;8.888;2023-05-07T11:50:50;4.57;;;2.60;;
7707;SDS011;3896;48.758;8.888;2023-05-07T11:53:22;2.83;;;2.57;;
7707;SDS011;3896;48.758;8.888;2023-05-07T11:55:52;6.33;;;2.80;;
7707;SDS011;3896;48.758;8.888;2023-05-07T11:58:21;4.40;;;3.20;;
7707;SDS011;3896;48.758;8.888;2023-05-07T12:00:49;5.20;;;3.40;;
7707;SDS011;3896;48.758;8.888;2023-05-07T12:03:15;4.17;;;2.93;;
7707;SDS011;3896;48.758;8.888;2023-05-07T12:05:40;4.07;;;3.07;;
7707;SDS011;3896;48.758;8.888;2023-05-07T12:08:07;3.87;;;3.57;;
7707;SDS011;3896;48.758;8.888;2023-05-07T12:10:33;5.10;;;3.53;;
7707;SDS011;3896;48.758;8.888;2023-05-07T12:12:58;3.53;;;3.23;;
7707;SDS011;3896;48.758;8.888;2023-05-07T12:15:24;4.43;;;3.60;;
7707;SDS011;3896;48.758;8.888;2023-05-07T12:17:49;4.33;;;3.93;;
7707;SDS011;3896;48.758;8.888;2023-05-07T12:20:17;5.27;;;3.60;;
7707;SDS011;3896;48.758;8.888;2023-05-07T12:22:43;5.67;;;3.83;;
7707;SDS011;3896;48.758;8.888;2023-05-07T12:25:09;5.07;;;3.90;;
7707;SDS011;3896;48.758;8.888;2023-05-07T12:27:36;3.47;;;3.20;;
7707;SDS011;3896;48.758;8.888;2023-05-07T12:30:04;3.20;;;2.90;;
7707;SDS011;3896;48.758;8.888;2023-05-07T12:32:30;3.00;;;2.70;;
7707;SDS011;3896;48.758;8.888;2023-05-07T12:35:01;2.60;;;2.03;;
7707;SDS011;3896;48.758;8.888;2023-05-07T12:37:26;2.90;;;2.20;;
7707;SDS011;3896;48.758;8.888;2023-05-07T12:40:05;4.57;;;2.80;;
7707;SDS011;3896;48.758;8.888;2023-05-07T12:42:38;3.37;;;2.30;;
7707;SDS011;3896;48.758;8.888;2023-05-07T12:45:11;3.50;;;2.67;;
7707;SDS011;3896;48.758;8.888;2023-05-07T12:47:38;2.70;;;1.87;;
7707;SDS011;3896;48.758;8.888;2023-05-07T12:50:07;3.20;;;2.20;;
7707;SDS011;3896;48.758;8.888;2023-05-07T12:52:33;4.67;;;2.53;;
7707;SDS011;3896;48.758;8.888;2023-05-07T12:55:04;2.33;;;2.17;;
7707;SDS011;3896;48.758;8.888;2023-05-07T12:57:37;2.57;;;2.27;;
7707;SDS011;3896;48.758;8.888;2023-05-07T13:00:06;2.27;;;2.10;;
7707;SDS011;3896;48.758;8.888;2023-05-07T13:02:34;2.10;;;1.90;;
7707;SDS011;3896;48.758;8.888;2023-05-07T13:05:03;2.80;;;1.87;;
7707;SDS011;3896;48.758;8.888;2023-05-07T13:07:28;4.20;;;2.27;;
7707;SDS011;3896;48.758;8.888;2023-05-07T13:09:54;3.00;;;2.40;;
7707;SDS011;3896;48.758;8.888;2023-05-07T13:12:20;2.40;;;2.20;;
7707;SDS011;3896;48.758;8.888;2023-05-07T13:14:45;4.17;;;3.20;;
7707;SDS011;3896;48.758;8.888;2023-05-07T13:17:11;4.30;;;2.03;;
7707;SDS011;3896;48.758;8.888;2023-05-07T13:19:36;2.80;;;2.50;;
7707;SDS011;3896;48.758;8.888;2023-05-07T13:22:02;2.23;;;2.13;;
7707;SDS011;3896;48.758;8.888;2023-05-07T13:24:28;2.70;;;2.20;;
7707;SDS011;3896;48.758;8.888;2023-05-07T13:26:54;2.03;;;1.80;;
7707;SDS011;3896;48.758;8.888;2023-05-07T13:29:19;3.23;;;1.67;;
7707;SDS011;3896;48.758;8.888;2023-05-07T13:31:50;1.93;;;1.70;;
7707;SDS011;3896;48.758;8.888;2023-05-07T13:34:15;1.47;;;1.37;;
7707;SDS011;3896;48.758;8.888;2023-05-07T13:36:41;4.30;;;1.90;;
7707;SDS011;3896;48.758;8.888;2023-05-07T13:39:06;3.77;;;1.87;;
7707;SDS011;3896;48.758;8.888;2023-05-07T13:41:32;2.30;;;1.50;;
7707;SDS011;3896;48.758;8.888;2023-05-07T13:43:58;3.23;;;1.50;;
7707;SDS011;3896;48.758;8.888;2023-05-07T13:46:23;3.20;;;1.93;;
7707;SDS011;3896;48.758;8.888;2023-05-07T13:48:49;1.40;;;1.30;;
7707;SDS011;3896;48.758;8.888;2023-05-07T13:51:16;1.63;;;1.50;;
7707;SDS011;3896;48.758;8.888;2023-05-07T13:53:41;1.83;;;1.70;;
7707;SDS011;3896;48.758;8.888;2023-05-07T13:56:07;2.10;;;1.60;;
7707;SDS011;3896;48.758;8.888;2023-05-07T13:58:33;3.47;;;2.00;;
7707;SDS011;3896;48.758;8.888;2023-05-07T14:00:58;2.70;;;1.60;;
7707;SDS011;3896;48.758;8.888;2023-05-07T14:03:24;1.83;;;1.57;;
7707;SDS011;3896;48.758;8.888;2023-05-07T14:05:49;3.00;;;1.60;;
7707;SDS011;3896;48.758;8.888;2023-05-07T14:08:15;1.83;;;1.73;;
7707;SDS011;3896;48.758;8.888;2023-05-07T14:10:42;4.20;;;2.13;;
7707;SDS011;3896;48.758;8.888;2023-05-07T14:13:08;4.43;;;1.90;;
7707;SDS011;3896;48.758;8.888;2023-05-07T14:15:33;2.83;;;1.83;;
7707;SDS011;3896;48.758;8.888;2023-05-07T14:17:59;3.57;;;2.33;;
7707;SDS011;3896;48.758;8.888;2023-05-07T14:20:25;1.90;;;1.80;;
7707;SDS011;3896;48.758;8.888;2023-05-07T14:22:51;3.37;;;1.93;;
7707;SDS011;3896;48.758;8.888;2023-05-07T14:25:16;1.83;;;1.57;;
7707;SDS011;3896;48.758;8.888;2023-05-07T14:27:42;3.57;;;1.87;;
7707;SDS011;3896;48.758;8.888;2023-05-07T14:30:08;2.50;;;2.00;;
7707;SDS011;3896;48.758;8.888;2023-05-07T14:32:34;5.63;;;2.20;;
7707;SDS011;3896;48.758;8.888;2023-05-07T14:34:59;6.50;;;2.00;;
7707;SDS011;3896;48.758;8.888;2023-05-07T14:37:25;1.87;;;1.77;;
7707;SDS011;3896;48.758;8.888;2023-05-07T14:39:51;3.60;;;2.00;;
7707;SDS011;3896;48.758;8.888;2023-05-07T14:42:16;2.10;;;1.90;;
7707;SDS011;3896;48.758;8.888;2023-05-07T14:44:43;4.03;;;2.10;;
7707;SDS011;3896;48.758;8.888;2023-05-07T14:47:10;4.70;;;2.57;;
7707;SDS011;3896;48.758;8.888;2023-05-07T14:49:35;2.60;;;2.40;;
7707;SDS011;3896;48.758;8.888;2023-05-07T14:52:01;4.07;;;2.30;;
7707;SDS011;3896;48.758;8.888;2023-05-07T14:54:27;4.63;;;2.67;;
7707;SDS011;3896;48.758;8.888;2023-05-07T14:56:52;3.37;;;2.30;;
7707;SDS011;3896;48.758;8.888;2023-05-07T14:59:18;2.50;;;2.10;;
7707;SDS011;3896;48.758;8.888;2023-05-07T15:01:46;2.33;;;1.90;;
7707;SDS011;3896;48.758;8.888;2023-05-07T15:04:12;2.13;;;2.03;;
7707;SDS011;3896;48.758;8.888;2023-05-07T15:06:38;2.33;;;2.13;;
7707;SDS011;3896;48.758;8.888;2023-05-07T15:09:04;1.90;;;1.80;;
7707;SDS011;3896;48.758;8.888;2023-05-07T15:11:30;3.07;;;2.53;;
7707;SDS011;3896;48.758;8.888;2023-05-07T15:13:55;2.83;;;2.60;;
7707;SDS011;3896;48.758;8.888;2023-05-07T15:16:21;3.77;;;3.47;;
7707;SDS011;3896;48.758;8.888;2023-05-07T15:18:46;2.90;;;2.50;;
7707;SDS011;3896;48.758;8.888;2023-05-07T15:21:13;2.87;;;2.60;;